Time;durP1;ratioP1;P1;durP2;ratioP2;P2;SDS_P1;SDS_P2;PMS_P1;PMS_P2;Temp;Humidity;BMP_temperature;BMP_pressure;BME280_temperature;BME280_humidity;BME280_pressure;Samples;Min_cycle;Max_cycle;Signal;HPM_P1;HPM_P2
2024/04/12 00:00:59;;;;;;;13.70;6.47;;;8.60;83.40;;;;;;5429629;26;20550;-73
2024/04/12 00:03:26;;;;;;;6.70;5.47;;;8.60;82.20;;;;;;5420292;26;20591;-73
2024/04/12 00:06:00;;;;;;;7.90;5.10;;;8.70;81.60;;;;;;5415275;26;20560;-73
2024/04/12 00:08:28;;;;;;;7.60;5.27;;;8.70;81.30;;;;;;5420528;26;20539;-73
2024/04/12 00:10:59;;;;;;;6.00;5.40;;;8.70;81.20;;;;;;5436046;26;20531;-72
2024/04/12 00:13:31;;;;;;;10.73;4.83;;;8.80;81.20;;;;;;5426758;26;20590;-73
2024/04/12 00:16:03;;;;;;;6.00;5.17;;;8.70;82.00;;;;;;5403619;26;20555;-73
2024/04/12 00:18:30;;;;;;;5.33;4.83;;;8.70;83.10;;;;;;5402634;26;20593;-73
2024/04/12 00:21:01;;;;;;;14.63;5.30;;;8.70;82.60;;;;;;5411839;26;21144;-72
2024/04/12 00:23:28;;;;;;;6.70;4.67;;;8.70;81.90;;;;;;5426396;26;20538;-72
2024/04/12 00:26:00;;;;;;;6.90;5.27;;;8.70;82.70;;;;;;5431951;26;20554;-73
2024/04/12 00:28:29;;;;;;;11.50;5.57;;;8.70;82.50;;;;;;5413822;26;21047;-72
2024/04/12 00:31:00;;;;;;;5.13;4.50;;;8.70;82.50;;;;;;5413239;26;20595;-73
2024/04/12 00:33:31;;;;;;;13.13;5.70;;;8.70;82.50;;;;;;5413980;26;20619;-73
2024/04/12 00:36:07;;;;;;;5.90;4.80;;;8.60;82.80;;;;;;5437323;26;20590;-72
2024/04/12 00:38:35;;;;;;;4.70;4.30;;;8.60;83.40;;;;;;5424766;26;20934;-73
2024/04/12 00:41:11;;;;;;;6.20;5.17;;;8.50;84.60;;;;;;5413016;26;20897;-73
2024/04/12 00:43:45;;;;;;;7.90;5.07;;;8.40;85.40;;;;;;5417774;26;20639;-72
2024/04/12 00:46:17;;;;;;;6.43;5.37;;;8.30;86.00;;;;;;5405395;26;21198;-72
2024/04/12 00:48:44;;;;;;;5.40;4.30;;;8.30;85.70;;;;;;5415402;26;20586;-73
2024/04/12 00:51:18;;;;;;;6.65;4.95;;;8.30;85.50;;;;;;5416065;26;21134;-73
2024/04/12 00:53:47;;;;;;;5.87;4.73;;;8.40;85.00;;;;;;5414455;26;20371;-73
2024/04/12 00:56:17;;;;;;;5.70;4.60;;;8.40;85.80;;;;;;5406340;26;20555;-73
2024/04/12 00:58:47;;;;;;;6.28;4.68;;;8.40;86.10;;;;;;5415445;26;20592;-73
2024/04/12 01:01:22;;;;;;;6.27;4.80;;;8.40;86.80;;;;;;5417792;26;20311;-72
2024/04/12 01:03:49;;;;;;;7.20;4.93;;;8.40;87.40;;;;;;5399342;26;20599;-73
2024/04/12 01:06:24;;;;;;;8.37;4.37;;;8.30;86.00;;;;;;5411069;26;21176;-73
2024/04/12 01:08:51;;;;;;;12.80;4.97;;;8.40;85.20;;;;;;5417110;26;20630;-72
2024/04/12 01:11:22;;;;;;;6.68;4.88;;;8.50;86.30;;;;;;5410953;26;20595;-73
2024/04/12 01:13:49;;;;;;;6.43;5.00;;;8.40;87.00;;;;;;5411566;26;20297;-73
2024/04/12 01:16:18;;;;;;;7.00;5.80;;;8.40;86.00;;;;;;5413534;26;20552;-73
2024/04/12 01:18:46;;;;;;;5.93;4.10;;;8.40;86.80;;;;;;5399868;26;20691;-73
2024/04/12 01:21:20;;;;;;;4.00;3.60;;;8.30;86.70;;;;;;5418534;26;21050;-73
2024/04/12 01:23:53;;;;;;;12.70;4.93;;;8.20;86.80;;;;;;5426692;26;20554;-73
2024/04/12 01:26:27;;;;;;;6.83;4.57;;;8.10;86.70;;;;;;5422260;26;20285;-73
2024/04/12 01:28:56;;;;;;;9.17;5.10;;;8.10;88.20;;;;;;5420148;26;20547;-73
2024/04/12 01:31:27;;;;;;;6.30;4.53;;;8.10;86.90;;;;;;5406560;26;20548;-73
2024/04/12 01:33:54;;;;;;;5.40;4.80;;;8.00;86.10;;;;;;5408701;26;20702;-72
2024/04/12 01:36:24;;;;;;;7.45;4.90;;;8.00;88.30;;;;;;5427247;26;20615;-73
2024/04/12 01:38:53;;;;;;;4.70;4.05;;;8.00;89.20;;;;;;5425098;26;20749;-73
2024/04/12 01:41:31;;;;;;;5.45;4.70;;;8.00;89.90;;;;;;5414164;26;20278;-72
2024/04/12 01:44:04;;;;;;;5.95;4.25;;;7.90;90.20;;;;;;5424277;26;20739;-73
2024/04/12 01:46:35;;;;;;;4.88;4.20;;;7.80;90.20;;;;;;5432346;26;20293;-73
2024/04/12 01:49:05;;;;;;;4.70;3.88;;;7.90;90.10;;;;;;5415812;26;20237;-72
2024/04/12 01:51:36;;;;;;;5.25;4.72;;;7.90;89.00;;;;;;5403606;26;20284;-72
2024/04/12 01:54:13;;;;;;;6.78;4.05;;;7.90;87.80;;;;;;5423490;26;20277;-72
2024/04/12 01:56:48;;;;;;;5.47;4.35;;;7.80;87.60;;;;;;5415778;26;20239;-73
2024/04/12 01:59:17;;;;;;;6.30;4.70;;;7.80;89.40;;;;;;5411032;26;20241;-73
2024/04/12 02:01:48;;;;;;;4.88;4.00;;;7.80;88.60;;;;;;5430394;26;20654;-73
2024/04/12 02:04:18;;;;;;;8.38;4.60;;;7.80;88.30;;;;;;5420150;26;20308;-73
2024/04/12 02:06:50;;;;;;;6.00;3.72;;;7.80;88.20;;;;;;5399041;26;20607;-73
2024/04/12 02:09:20;;;;;;;5.13;4.28;;;7.70;87.90;;;;;;5409476;26;20245;-73
2024/04/12 02:11:53;;;;;;;6.38;4.05;;;7.80;87.60;;;;;;5436444;26;20248;-73
2024/04/12 02:14:21;;;;;;;5.55;4.20;;;7.70;87.80;;;;;;5424956;26;20349;-73
2024/04/12 02:16:53;;;;;;;6.95;4.97;;;7.80;87.90;;;;;;5422109;26;20256;-73
2024/04/12 02:19:21;;;;;;;6.72;4.53;;;7.80;87.70;;;;;;5415230;26;20249;-72
2024/04/12 02:21:51;;;;;;;11.07;4.55;;;7.70;89.10;;;;;;5418822;26;20567;-72
2024/04/12 02:24:18;;;;;;;11.23;4.47;;;7.60;89.60;;;;;;5424067;26;20249;-73
2024/04/12 02:26:50;;;;;;;4.95;4.15;;;7.60;88.60;;;;;;5427927;26;20244;-73
2024/04/12 02:29:21;;;;;;;5.60;4.78;;;7.50;90.10;;;;;;5439788;26;20252;-73
2024/04/12 02:31:50;;;;;;;9.32;5.10;;;7.50;89.80;;;;;;5406806;26;20267;-73
2024/04/12 02:34:17;;;;;;;8.63;4.63;;;7.50;89.10;;;;;;5419182;26;20241;-73
2024/04/12 02:36:48;;;;;;;5.05;4.47;;;7.50;89.20;;;;;;5420086;26;20283;-74
2024/04/12 02:39:22;;;;;;;5.03;4.53;;;7.50;88.70;;;;;;5410190;26;20774;-72
2024/04/12 02:41:54;;;;;;;5.07;4.57;;;7.50;88.80;;;;;;5432101;26;20287;-73
2024/04/12 02:44:25;;;;;;;6.07;4.22;;;7.50;90.20;;;;;;5430100;26;20605;-73
2024/04/12 02:46:54;;;;;;;6.35;4.43;;;7.40;90.30;;;;;;5409022;26;20240;-74
2024/04/12 02:49:22;;;;;;;5.35;4.20;;;7.30;89.70;;;;;;5419394;26;20284;-73
2024/04/12 02:51:53;;;;;;;7.50;5.10;;;7.30;89.90;;;;;;5423212;26;20301;-73
2024/04/12 02:54:20;;;;;;;6.53;4.65;;;7.40;89.70;;;;;;5426113;26;20332;-73
2024/04/12 02:56:50;;;;;;;6.90;5.28;;;7.40;89.20;;;;;;5428305;26;20287;-73
2024/04/12 02:59:17;;;;;;;5.05;4.20;;;7.40;89.10;;;;;;5415352;26;20275;-73
2024/04/12 03:01:49;;;;;;;9.82;4.72;;;7.40;90.50;;;;;;5442923;26;20350;-73
2024/04/12 03:04:17;;;;;;;5.63;4.28;;;7.30;90.50;;;;;;5419561;26;20263;-73
2024/04/12 03:06:46;;;;;;;9.27;4.50;;;7.30;90.90;;;;;;5397522;26;20285;-73
2024/04/12 03:09:18;;;;;;;4.90;3.60;;;7.30;90.30;;;;;;5424638;26;20287;-73
2024/04/12 03:11:50;;;;;;;5.90;4.57;;;7.30;90.10;;;;;;5421038;26;20249;-72
2024/04/12 03:14:18;;;;;;;5.78;4.85;;;7.40;90.50;;;;;;5435213;26;20252;-73
2024/04/12 03:16:51;;;;;;;7.38;5.22;;;7.30;90.80;;;;;;5422115;26;20271;-73
2024/04/12 03:19:18;;;;;;;5.05;4.55;;;7.10;90.90;;;;;;5422395;26;20244;-73
2024/04/12 03:21:50;;;;;;;5.32;4.60;;;7.20;91.10;;;;;;5407260;26;20267;-73
2024/04/12 03:24:17;;;;;;;5.05;4.22;;;7.30;90.70;;;;;;5433386;26;20240;-73
2024/04/12 03:26:47;;;;;;;6.60;4.90;;;7.30;90.50;;;;;;5433827;26;20241;-73
2024/04/12 03:29:16;;;;;;;4.47;3.55;;;7.30;90.10;;;;;;5425410;26;20243;-73
2024/04/12 03:31:46;;;;;;;6.82;4.60;;;7.40;90.10;;;;;;5427464;26;20266;-73
2024/04/12 03:34:15;;;;;;;4.70;4.15;;;7.40;89.90;;;;;;5414832;26;20241;-73
2024/04/12 03:36:57;;;;;;;5.63;3.97;;;7.40;89.70;;;;;;5414774;26;20241;-73
2024/04/12 03:39:34;;;;;;;6.70;3.60;;;7.40;90.00;;;;;;5421600;26;20598;-73
2024/04/12 03:42:08;;;;;;;5.60;4.78;;;7.30;90.10;;;;;;5427264;26;20244;-73
2024/04/12 03:44:36;;;;;;;5.72;4.03;;;7.30;90.20;;;;;;5429172;26;20328;-72
2024/04/12 03:47:07;;;;;;;8.90;3.45;;;7.30;90.20;;;;;;5422205;26;20406;-73
2024/04/12 03:49:39;;;;;;;7.50;4.20;;;7.30;90.10;;;;;;5404764;26;20312;-74
2024/04/12 03:52:12;;;;;;;4.78;4.28;;;7.30;89.70;;;;;;5413628;26;20749;-73
2024/04/12 03:54:39;;;;;;;7.18;4.97;;;7.30;89.90;;;;;;5425643;26;20244;-73
2024/04/12 03:57:09;;;;;;;6.57;4.60;;;7.30;90.20;;;;;;5416656;26;20270;-73
2024/04/12 03:59:38;;;;;;;5.75;5.25;;;7.10;89.80;;;;;;5428947;26;20264;-72
2024/04/12 04:02:09;;;;;;;5.38;4.88;;;7.00;89.90;;;;;;5411583;26;20241;-73
2024/04/12 04:04:44;;;;;;;6.07;4.60;;;7.00;90.00;;;;;;5414272;26;20643;-73
2024/04/12 04:07:14;;;;;;;7.03;4.80;;;6.90;90.10;;;;;;5413782;26;20248;-73
2024/04/12 04:09:44;;;;;;;6.57;4.63;;;6.90;91.00;;;;;;5414858;26;20249;-73
2024/04/12 04:12:14;;;;;;;7.35;4.75;;;6.80;90.90;;;;;;5412394;26;20249;-73
2024/04/12 04:14:47;;;;;;;5.70;5.00;;;6.80;90.30;;;;;;5419058;26;20228;-73
2024/04/12 04:17:14;;;;;;;5.13;4.55;;;6.90;90.40;;;;;;5432757;26;20280;-73
2024/04/12 04:19:46;;;;;;;7.60;5.53;;;6.90;90.40;;;;;;5416435;26;20270;-73
2024/04/12 04:22:21;;;;;;;4.78;4.28;;;6.80;90.80;;;;;;5405401;26;20292;-73
2024/04/12 04:24:51;;;;;;;6.63;5.03;;;6.70;91.10;;;;;;5422465;26;20240;-73
2024/04/12 04:27:17;;;;;;;7.30;5.40;;;6.70;90.90;;;;;;5424963;26;20283;-73
2024/04/12 04:29:46;;;;;;;12.85;5.03;;;6.70;90.60;;;;;;5433638;26;21011;-74
2024/04/12 04:32:12;;;;;;;6.10;4.90;;;6.80;90.60;;;;;;5404972;26;20318;-73
2024/04/12 04:34:44;;;;;;;5.65;5.07;;;6.70;90.50;;;;;;5412802;26;20249;-73
2024/04/12 04:37:15;;;;;;;6.90;5.13;;;6.70;90.60;;;;;;5425605;26;20328;-73
2024/04/12 04:39:41;;;;;;;5.97;4.47;;;6.60;90.50;;;;;;5416783;26;20271;-73
2024/04/12 04:42:13;;;;;;;4.85;4.35;;;6.70;90.60;;;;;;5422124;26;20244;-70
2024/04/12 04:44:39;;;;;;;5.93;4.50;;;6.70;90.50;;;;;;5421348;26;20268;-72
2024/04/12 04:47:09;;;;;;;5.22;4.68;;;6.70;90.70;;;;;;5413931;26;20344;-71
2024/04/12 04:49:36;;;;;;;6.25;5.28;;;6.70;90.70;;;;;;5424357;26;20256;-72
2024/04/12 04:52:08;;;;;;;7.40;5.75;;;6.80;90.70;;;;;;5431862;26;20299;-72
2024/04/12 04:54:39;;;;;;;5.22;4.15;;;6.80;90.70;;;;;;5409900;26;20806;-72
2024/04/12 04:57:10;;;;;;;6.70;6.00;;;6.80;91.00;;;;;;5413075;26;20341;-72
2024/04/12 04:59:36;;;;;;;7.15;4.90;;;6.80;91.30;;;;;;5426729;26;20237;-72
2024/04/12 05:02:05;;;;;;;6.97;4.68;;;6.80;92.10;;;;;;5421531;26;20293;-71
2024/04/12 05:04:32;;;;;;;7.18;4.55;;;6.80;91.80;;;;;;5428930;26;20333;-72
2024/04/12 05:07:03;;;;;;;7.45;5.50;;;6.80;91.40;;;;;;5417724;26;20281;-72
2024/04/12 05:09:30;;;;;;;10.05;5.35;;;6.90;91.40;;;;;;5424373;26;20249;-72
2024/04/12 05:12:01;;;;;;;6.55;4.82;;;7.00;91.30;;;;;;5419272;26;20275;-72
2024/04/12 05:14:46;;;;;;;7.85;5.97;;;7.00;91.20;;;;;;5429772;26;20248;-72
2024/04/12 05:17:17;;;;;;;7.43;5.25;;;7.10;91.20;;;;;;5418429;26;20757;-72
2024/04/12 05:19:43;;;;;;;14.20;6.30;;;7.20;91.20;;;;;;5414955;26;20271;-72
2024/04/12 05:22:14;;;;;;;7.57;5.78;;;7.20;91.90;;;;;;5406714;26;20264;-72
2024/04/12 05:24:41;;;;;;;6.53;5.25;;;7.20;92.00;;;;;;5424955;26;20267;-72
2024/04/12 05:27:13;;;;;;;12.43;7.13;;;7.20;92.10;;;;;;5431327;26;20271;-72
2024/04/12 05:29:40;;;;;;;10.90;6.55;;;7.20;92.20;;;;;;5436826;26;20256;-72
2024/04/12 05:32:12;;;;;;;7.00;6.30;;;7.20;92.50;;;;;;5409126;26;20594;-72
2024/04/12 05:34:40;;;;;;;9.98;5.45;;;7.30;92.30;;;;;;5410285;26;20267;-73
2024/04/12 05:37:09;;;;;;;5.85;5.25;;;7.30;92.40;;;;;;5409738;26;20242;-73
2024/04/12 05:39:41;;;;;;;7.22;4.82;;;7.40;92.50;;;;;;5414623;26;20561;-73
2024/04/12 05:42:15;;;;;;;8.68;6.25;;;7.40;92.50;;;;;;5411755;26;20245;-72
2024/04/12 05:44:43;;;;;;;8.18;5.97;;;7.40;92.20;;;;;;5400713;26;20256;-72
2024/04/12 05:47:12;;;;;;;10.23;6.20;;;7.60;92.50;;;;;;5398302;26;20764;-73
2024/04/12 05:49:38;;;;;;;8.40;5.28;;;7.70;91.90;;;;;;5425720;26;20273;-72
2024/04/12 05:52:08;;;;;;;9.55;5.57;;;7.90;91.40;;;;;;5389369;26;20287;-72
2024/04/12 05:54:39;;;;;;;6.90;6.20;;;8.10;91.00;;;;;;5388491;26;20237;-72
2024/04/12 05:57:10;;;;;;;12.13;5.55;;;8.20;90.50;;;;;;5420930;26;20249;-72
2024/04/12 05:59:42;;;;;;;7.25;5.22;;;8.20;90.10;;;;;;5409539;26;20353;-76
2024/04/12 06:02:15;;;;;;;13.88;6.40;;;8.40;89.80;;;;;;5413736;26;20241;-72
2024/04/12 06:04:47;;;;;;;6.22;5.35;;;8.40;89.00;;;;;;5422768;26;20335;-71
2024/04/12 06:07:16;;;;;;;8.43;5.85;;;8.50;89.30;;;;;;5412362;26;20599;-70
2024/04/12 06:09:47;;;;;;;8.05;5.90;;;8.60;89.20;;;;;;5408165;26;20265;-71
2024/04/12 06:12:16;;;;;;;6.40;5.80;;;8.70;89.60;;;;;;5407862;26;20249;-71
2024/04/12 06:14:45;;;;;;;5.55;4.97;;;8.90;89.50;;;;;;5408878;26;20543;-71
2024/04/12 06:17:15;;;;;;;7.60;6.05;;;8.90;88.70;;;;;;5409155;26;20656;-71
2024/04/12 06:19:42;;;;;;;7.47;5.70;;;8.90;88.20;;;;;;5425634;26;20275;-70
2024/04/12 06:22:13;;;;;;;6.33;5.73;;;9.00;88.00;;;;;;5435301;26;20623;-70
2024/04/12 06:24:40;;;;;;;14.20;5.77;;;9.10;87.80;;;;;;5423658;26;21130;-71
2024/04/12 06:27:09;;;;;;;11.27;6.78;;;9.20;87.00;;;;;;5392656;26;20547;-71
2024/04/12 06:29:35;;;;;;;8.67;6.87;;;9.20;86.80;;;;;;5403288;26;20241;-71
2024/04/12 06:32:08;;;;;;;11.63;5.70;;;9.20;86.60;;;;;;5413503;26;20605;-71
2024/04/12 06:34:37;;;;;;;8.37;5.70;;;9.30;86.80;;;;;;5408522;26;20601;-71
2024/04/12 06:37:08;;;;;;;6.23;5.30;;;9.50;86.90;;;;;;5418516;26;20869;-71
2024/04/12 06:39:35;;;;;;;8.50;5.03;;;9.70;86.80;;;;;;5412915;26;20886;-70
2024/04/12 06:42:08;;;;;;;5.90;5.20;;;9.80;85.20;;;;;;5410699;26;20584;-70
2024/04/12 06:44:35;;;;;;;7.03;5.23;;;9.90;84.80;;;;;;5415197;26;20638;-70
2024/04/12 06:47:09;;;;;;;11.83;5.63;;;10.00;83.20;;;;;;5413272;26;20602;-69
2024/04/12 06:49:37;;;;;;;4.93;4.50;;;10.10;83.30;;;;;;5417107;26;20561;-70
2024/04/12 06:52:14;;;;;;;5.43;4.70;;;10.20;83.90;;;;;;5405710;26;20559;-70
2024/04/12 06:54:42;;;;;;;10.67;5.47;;;10.30;83.80;;;;;;5411641;26;20622;-70
2024/04/12 06:57:17;;;;;;;7.10;4.53;;;10.40;83.20;;;;;;5417815;26;21102;-70
2024/04/12 06:59:46;;;;;;;6.23;4.53;;;10.50;83.10;;;;;;5408218;26;20547;-72
2024/04/12 07:02:23;;;;;;;5.53;4.13;;;10.60;83.10;;;;;;5410230;26;20658;-71
2024/04/12 07:04:52;;;;;;;6.27;4.60;;;10.70;83.00;;;;;;5407160;26;20620;-71
2024/04/12 07:07:22;;;;;;;13.53;5.30;;;11.10;82.10;;;;;;5412275;26;20680;-71
2024/04/12 07:09:50;;;;;;;6.43;5.70;;;11.20;81.40;;;;;;5412770;26;20543;-69
2024/04/12 07:12:19;;;;;;;7.80;4.60;;;11.40;81.10;;;;;;5408800;26;20615;-72
2024/04/12 07:14:46;;;;;;;7.40;4.47;;;11.60;79.50;;;;;;5411370;26;20600;-70
2024/04/12 07:17:25;;;;;;;8.00;4.70;;;11.80;79.60;;;;;;5408554;26;20555;-70
2024/04/12 07:19:52;;;;;;;6.03;3.83;;;11.80;79.40;;;;;;5415330;26;20601;-70
2024/04/12 07:22:22;;;;;;;8.87;4.33;;;12.00;79.80;;;;;;5404983;26;20592;-69
2024/04/12 07:24:50;;;;;;;8.87;4.43;;;12.20;78.90;;;;;;5406199;26;22270;-70
2024/04/12 07:27:22;;;;;;;7.00;3.93;;;12.30;78.50;;;;;;5405119;26;20602;-70
2024/04/12 07:29:49;;;;;;;6.70;4.57;;;12.40;78.30;;;;;;5403377;26;20549;-70
2024/04/12 07:32:22;;;;;;;8.90;3.97;;;12.50;77.10;;;;;;5406641;26;20555;-70
2024/04/12 07:34:48;;;;;;;7.03;4.23;;;12.70;77.10;;;;;;5409143;26;20610;-70
2024/04/12 07:37:26;;;;;;;6.73;4.47;;;12.90;77.00;;;;;;5408012;26;20626;-70
2024/04/12 07:40:15;;;;;;;6.27;4.47;;;13.10;77.60;;;;;;5408094;26;20956;-70
2024/04/12 07:42:46;;;;;;;6.33;4.10;;;13.20;78.30;;;;;;5412445;26;20601;-70
2024/04/12 07:45:17;;;;;;;9.90;4.53;;;13.40;77.60;;;;;;5416122;26;20937;-70
2024/04/12 07:47:56;;;;;;;6.40;4.40;;;13.50;77.30;;;;;;5409285;26;20593;-70
2024/04/12 07:50:28;;;;;;;9.90;4.23;;;13.60;75.50;;;;;;5407241;26;20552;-70
2024/04/12 07:53:09;;;;;;;9.50;4.33;;;13.70;73.80;;;;;;5408703;26;20599;-70
2024/04/12 07:55:41;;;;;;;9.03;4.37;;;13.80;74.80;;;;;;5425538;26;20589;-70
2024/04/12 07:58:12;;;;;;;6.83;3.83;;;14.00;73.80;;;;;;5415612;26;20591;-70
2024/04/12 08:00:45;;;;;;;10.60;4.10;;;14.30;73.90;;;;;;5411382;26;20665;-70
2024/04/12 08:03:17;;;;;;;13.30;5.00;;;14.40;73.70;;;;;;5416604;26;21108;-70
2024/04/12 08:05:59;;;;;;;8.60;4.80;;;14.50;74.10;;;;;;5408279;26;20546;-70
2024/04/12 08:08:43;;;;;;;8.93;5.20;;;14.70;72.90;;;;;;5407203;26;20547;-71
2024/04/12 08:11:31;;;;;;;10.40;6.60;;;14.80;73.30;;;;;;5411754;26;20592;-70
2024/04/12 08:14:05;;;;;;;8.57;6.07;;;14.80;73.00;;;;;;5412306;26;20987;-70
2024/04/12 08:16:37;;;;;;;7.07;4.80;;;14.90;73.20;;;;;;5407017;26;20537;-70
2024/04/12 08:19:12;;;;;;;7.87;5.60;;;15.10;72.40;;;;;;5407867;26;20559;-70
2024/04/12 08:21:43;;;;;;;10.30;6.17;;;15.10;72.60;;;;;;5412398;26;20587;-70
2024/04/12 08:24:10;;;;;;;11.03;4.90;;;15.20;71.30;;;;;;5411202;26;20536;-70
2024/04/12 08:26:45;;;;;;;10.67;5.60;;;15.40;71.60;;;;;;5410636;26;20608;-70
2024/04/12 08:29:20;;;;;;;16.43;5.50;;;15.40;71.20;;;;;;5406479;26;20550;-71
2024/04/12 08:31:59;;;;;;;10.87;6.27;;;15.50;69.20;;;;;;5406680;26;20587;-71
2024/04/12 08:34:28;;;;;;;13.90;5.83;;;15.80;70.60;;;;;;5405795;26;20554;-71
2024/04/12 08:36:57;;;;;;;14.60;5.53;;;15.80;70.20;;;;;;5406683;26;20591;-71
2024/04/12 08:39:26;;;;;;;13.03;5.63;;;15.80;69.60;;;;;;5405622;26;20664;-72
2024/04/12 08:42:04;;;;;;;11.00;5.87;;;15.90;71.00;;;;;;5410433;26;20542;-72
2024/04/12 08:44:31;;;;;;;10.30;5.70;;;16.00;70.60;;;;;;5410309;26;20656;-71
2024/04/12 08:47:16;;;;;;;16.30;7.20;;;16.10;71.80;;;;;;5417533;26;20590;-71
2024/04/12 08:49:51;;;;;;;19.87;6.07;;;16.30;71.50;;;;;;5411851;26;21175;-71
2024/04/12 08:52:31;;;;;;;13.70;6.30;;;16.40;71.90;;;;;;5410305;26;21239;-72
2024/04/12 08:54:59;;;;;;;13.40;5.83;;;16.60;70.20;;;;;;5413758;26;20665;-72
2024/04/12 08:57:33;;;;;;;14.60;4.87;;;16.60;69.40;;;;;;5412562;26;20595;-70
2024/04/12 09:00:00;;;;;;;12.20;6.30;;;16.70;68.80;;;;;;5409097;26;20543;-72
2024/04/12 09:02:40;;;;;;;16.70;7.07;;;16.70;71.90;;;;;;5409762;26;20607;-73
2024/04/12 09:05:09;;;;;;;12.57;6.80;;;16.80;70.40;;;;;;5391606;26;21213;-73
2024/04/12 09:07:42;;;;;;;13.57;6.77;;;16.90;70.90;;;;;;5415515;26;20560;-73
2024/04/12 09:10:15;;;;;;;15.50;6.30;;;17.00;70.80;;;;;;5405530;26;21208;-72
2024/04/12 09:12:44;;;;;;;12.70;6.00;;;17.10;69.80;;;;;;5402479;26;20749;-73
2024/04/12 09:15:23;;;;;;;14.50;6.30;;;17.20;68.30;;;;;;5423508;26;20547;-72
2024/04/12 09:17:59;;;;;;;14.30;6.67;;;17.40;67.00;;;;;;5408232;26;20586;-72
2024/04/12 09:20:31;;;;;;;15.17;6.23;;;17.50;65.10;;;;;;5414467;26;20558;-72
2024/04/12 09:23:13;;;;;;;18.00;6.97;;;17.40;66.10;;;;;;5426756;26;20586;-71
2024/04/12 09:25:41;;;;;;;15.00;7.30;;;17.50;66.40;;;;;;5419623;26;21128;-72
2024/04/12 09:28:13;;;;;;;16.93;6.07;;;17.70;65.40;;;;;;5422390;26;20551;-72
2024/04/12 09:33:31;;;;;;;14.10;6.73;;;17.70;65.90;;;;;;5422030;26;20562;-72
2024/04/12 09:36:13;;;;;;;19.67;5.63;;;17.80;62.80;;;;;;5438209;26;20553;-72
2024/04/12 09:38:40;;;;;;;15.30;5.90;;;17.90;62.40;;;;;;5433167;26;20606;-72
2024/04/12 09:41:28;;;;;;;15.10;5.13;;;17.70;62.60;;;;;;5423090;26;21085;-72
2024/04/12 09:43:59;;;;;;;17.10;5.43;;;17.70;62.40;;;;;;5434194;26;20610;-72
2024/04/12 09:46:46;;;;;;;17.27;5.17;;;18.00;63.40;;;;;;5423476;26;20549;-72
2024/04/12 10:39:44;;;;;;;23.40;7.53;;;19.60;62.30;;;;;;5413023;26;20606;-70
2024/04/12 10:42:19;;;;;;;21.90;7.20;;;19.70;62.30;;;;;;5413069;26;20588;-70
2024/04/12 10:44:51;;;;;;;22.20;6.87;;;19.90;60.20;;;;;;5426894;26;20554;-70
2024/04/12 10:47:21;;;;;;;22.60;5.90;;;19.80;58.70;;;;;;5416384;26;20591;-71
2024/04/12 10:49:47;;;;;;;19.90;6.93;;;19.90;58.80;;;;;;5411363;26;20539;-68
2024/04/12 10:52:16;;;;;;;18.10;6.73;;;19.90;59.50;;;;;;5412563;26;20668;-70
2024/04/12 10:54:42;;;;;;;19.50;6.40;;;19.80;57.80;;;;;;5412675;26;20557;-70
2024/04/12 10:57:13;;;;;;;17.20;5.70;;;20.10;57.40;;;;;;5412245;26;21167;-70
2024/04/12 10:59:42;;;;;;;19.90;5.20;;;20.20;56.90;;;;;;5406399;26;20591;-72
2024/04/12 11:02:13;;;;;;;17.70;5.40;;;20.30;56.40;;;;;;5416513;26;20567;-72
2024/04/12 11:07:23;;;;;;;16.80;5.40;;;20.40;56.60;;;;;;5405691;26;20623;-69
2024/04/12 11:09:57;;;;;;;19.70;6.07;;;20.60;56.30;;;;;;5411396;26;20571;-71
2024/04/12 11:12:29;;;;;;;17.03;5.53;;;20.80;56.00;;;;;;5400558;26;21098;-70
2024/04/12 11:15:13;;;;;;;16.93;5.37;;;20.80;55.60;;;;;;5424763;26;20557;-70
2024/04/12 11:31:55;;;;;;;15.93;6.27;;;21.00;56.00;;;;;;5416129;26;20606;-72
2024/04/12 11:34:25;;;;;;;16.23;5.20;;;21.20;54.80;;;;;;5424291;26;20947;-72
2024/04/12 11:36:55;;;;;;;14.83;5.90;;;21.30;55.60;;;;;;5414836;26;20603;-72
2024/04/12 11:39:25;;;;;;;14.47;5.93;;;21.50;55.90;;;;;;5416579;26;20568;-72
2024/04/12 11:41:56;;;;;;;17.57;6.77;;;21.70;56.70;;;;;;5426790;26;20551;-72
2024/04/12 11:44:23;;;;;;;14.40;5.50;;;22.30;54.70;;;;;;5411687;26;20603;-72
2024/04/12 11:46:56;;;;;;;12.67;5.97;;;22.60;53.20;;;;;;5422183;26;20559;-72
2024/04/12 11:49:25;;;;;;;14.47;5.17;;;22.90;52.80;;;;;;5415293;26;20705;-72
2024/04/12 11:51:57;;;;;;;8.97;4.90;;;23.20;53.80;;;;;;5419646;26;20911;-72
2024/04/12 11:54:24;;;;;;;12.77;6.77;;;22.90;53.10;;;;;;5429096;26;20594;-72
2024/04/12 11:56:54;;;;;;;7.63;4.60;;;22.50;53.70;;;;;;5416890;26;20559;-72
2024/04/12 11:59:21;;;;;;;8.50;4.37;;;23.60;54.00;;;;;;5426648;26;20538;-70
2024/04/12 12:01:52;;;;;;;7.13;5.50;;;24.40;52.80;;;;;;5412078;26;20611;-70
2024/04/12 12:04:22;;;;;;;7.90;4.90;;;25.10;52.30;;;;;;5411956;26;21036;-70
2024/04/12 12:06:51;;;;;;;6.50;5.10;;;25.80;50.80;;;;;;5419772;26;20626;-71
2024/04/12 12:09:20;;;;;;;9.40;5.97;;;26.50;49.40;;;;;;5406000;26;20609;-71
2024/04/12 12:11:49;;;;;;;5.90;5.30;;;26.80;48.30;;;;;;5416614;26;20601;-71
2024/04/12 12:14:15;;;;;;;8.23;5.90;;;27.10;48.00;;;;;;5417404;26;20555;-72
2024/04/12 12:16:44;;;;;;;8.87;5.90;;;26.50;48.10;;;;;;5417558;26;20633;-72
2024/04/12 12:19:11;;;;;;;7.80;6.73;;;25.80;48.60;;;;;;5416533;26;20621;-72
2024/04/12 12:21:42;;;;;;;9.50;5.83;;;25.00;47.90;;;;;;5424987;26;21107;-72
2024/04/12 12:24:10;;;;;;;4.77;3.90;;;23.80;48.40;;;;;;5414479;26;20580;-72
2024/04/12 12:26:39;;;;;;;7.10;4.30;;;22.80;50.10;;;;;;5407133;26;20969;-72
2024/04/12 12:29:06;;;;;;;4.77;4.27;;;22.00;51.50;;;;;;5413341;26;20559;-72
2024/04/12 12:31:35;;;;;;;5.40;4.53;;;21.50;51.70;;;;;;5421426;26;20905;-74
2024/04/12 12:34:04;;;;;;;5.57;4.63;;;21.40;52.20;;;;;;5424805;26;20911;-73
2024/04/12 12:36:33;;;;;;;6.77;4.33;;;21.50;53.20;;;;;;5422708;26;20931;-73
2024/04/12 12:39:03;;;;;;;7.00;4.50;;;21.60;52.90;;;;;;5407321;26;20547;-74
2024/04/12 12:41:32;;;;;;;10.27;5.40;;;21.70;53.20;;;;;;5413419;26;20552;-73
2024/04/12 12:44:00;;;;;;;10.73;6.17;;;21.40;52.20;;;;;;5411402;26;21151;-73
2024/04/12 12:46:29;;;;;;;9.80;5.70;;;21.20;52.80;;;;;;5401911;26;20544;-73
2024/04/12 12:48:56;;;;;;;10.33;5.60;;;21.30;53.60;;;;;;5420776;26;20888;-72
2024/04/12 12:51:26;;;;;;;11.77;4.80;;;22.40;53.10;;;;;;5415068;26;21187;-74
2024/04/12 12:53:53;;;;;;;8.17;6.57;;;24.30;52.80;;;;;;5406747;26;20584;-74
2024/04/12 12:56:31;;;;;;;10.33;5.50;;;25.50;49.80;;;;;;5405696;26;20660;-72
2024/04/12 12:58:59;;;;;;;10.67;6.43;;;26.90;49.70;;;;;;5407198;26;21233;-73
2024/04/12 13:01:34;;;;;;;11.43;7.30;;;27.90;48.20;;;;;;5406382;26;20611;-74
2024/04/12 13:04:02;;;;;;;7.07;6.37;;;28.50;45.80;;;;;;5416275;26;20558;-73
2024/04/12 13:06:33;;;;;;;12.10;6.13;;;29.40;47.20;;;;;;5403848;26;21112;-74
2024/04/12 13:09:00;;;;;;;11.70;6.30;;;30.30;45.50;;;;;;5408471;26;20555;-73
2024/04/12 13:11:32;;;;;;;9.27;6.50;;;31.00;44.10;;;;;;5417679;26;20554;-74
2024/04/12 13:13:59;;;;;;;7.30;6.60;;;30.60;44.10;;;;;;5409872;26;20587;-74
2024/04/12 13:16:28;;;;;;;10.30;6.23;;;31.20;42.40;;;;;;5411818;26;20628;-74
2024/04/12 13:18:56;;;;;;;7.00;5.40;;;31.20;42.10;;;;;;5398094;26;20559;-74
2024/04/12 13:21:25;;;;;;;8.70;5.70;;;31.50;42.00;;;;;;5402091;26;20600;-74
2024/04/12 13:23:53;;;;;;;7.17;6.47;;;31.80;41.10;;;;;;5419592;26;20934;-74
2024/04/12 13:26:31;;;;;;;8.60;7.80;;;32.20;42.00;;;;;;5417905;26;20545;-74
2024/04/12 13:29:00;;;;;;;8.70;7.77;;;32.20;41.60;;;;;;5398557;26;20582;-73
2024/04/12 13:31:32;;;;;;;13.37;8.30;;;31.60;41.60;;;;;;5410222;26;20554;-73
2024/04/12 13:34:00;;;;;;;9.50;7.50;;;31.00;40.50;;;;;;5399377;26;20593;-73
2024/04/12 13:36:31;;;;;;;8.73;7.83;;;30.70;41.20;;;;;;5415739;26;20562;-73
2024/04/12 13:38:57;;;;;;;10.20;8.37;;;30.10;41.20;;;;;;5414304;26;20930;-74
2024/04/12 13:41:26;;;;;;;20.33;8.60;;;30.20;42.00;;;;;;5414382;26;20551;-73
2024/04/12 13:43:53;;;;;;;9.00;8.20;;;28.40;42.90;;;;;;5422559;26;21120;-74
2024/04/12 13:51:55;;;;;;;8.97;7.70;;;30.50;42.50;;;;;;5410930;26;20555;-73
2024/04/12 13:54:25;;;;;;;9.77;6.47;;;30.80;42.90;;;;;;5414863;26;20937;-74
2024/04/12 13:56:56;;;;;;;8.37;7.20;;;31.50;42.30;;;;;;5416569;26;20543;-74
2024/04/12 13:59:22;;;;;;;8.07;6.93;;;32.00;40.50;;;;;;5412630;26;20580;-74
2024/04/12 14:01:54;;;;;;;6.83;5.97;;;32.40;39.80;;;;;;5403942;26;20610;-74
2024/04/12 14:04:26;;;;;;;8.37;6.47;;;32.60;39.30;;;;;;5414770;26;20972;-74
2024/04/12 14:06:56;;;;;;;6.20;5.50;;;32.40;38.90;;;;;;5416377;26;20698;-74
2024/04/12 14:09:23;;;;;;;8.90;5.00;;;31.80;40.00;;;;;;5413899;26;20665;-74
2024/04/12 14:11:52;;;;;;;6.40;5.30;;;31.40;40.80;;;;;;5420778;26;20640;-74
2024/04/12 14:14:20;;;;;;;8.70;5.70;;;31.40;40.40;;;;;;5412600;26;20535;-73
2024/04/12 14:16:51;;;;;;;10.20;4.40;;;30.70;40.70;;;;;;5434430;26;20594;-73
2024/04/12 14:19:20;;;;;;;6.97;3.70;;;30.90;40.40;;;;;;5416881;26;21117;-74
2024/04/12 14:21:51;;;;;;;6.53;3.17;;;30.80;41.30;;;;;;5412639;26;20628;-74